createdAt,value
2022-12-11T00:00:46.753Z,-1.20
2022-12-11T00:03:16.183Z,-1.20
2022-12-11T00:05:44.145Z,-1.20
2022-12-11T00:08:11.806Z,-1.30
2022-12-11T00:10:38.638Z,-1.30
2022-12-11T00:13:05.588Z,-1.30
2022-12-11T00:15:32.222Z,-1.30
2022-12-11T00:17:58.918Z,-1.20
2022-12-11T00:20:25.557Z,-1.30
2022-12-11T00:22:52.134Z,-1.20
2022-12-11T00:25:18.761Z,-1.10
2022-12-11T00:27:47.103Z,-1.00
2022-12-11T00:30:14.672Z,-1.10
2022-12-11T00:32:41.542Z,-1.10
2022-12-11T00:35:08.855Z,-1.10
2022-12-11T00:37:35.912Z,-1.20
2022-12-11T00:40:02.807Z,-1.30
2022-12-11T00:42:29.525Z,-1.20
2022-12-11T00:44:56.309Z,-1.30
2022-12-11T00:47:22.986Z,-1.30
2022-12-11T00:49:50.251Z,-1.30
2022-12-11T00:52:17.844Z,-1.30
2022-12-11T00:54:45.010Z,-1.30
2022-12-11T00:57:11.713Z,-1.30
2022-12-11T00:59:38.517Z,-1.30
2022-12-11T01:02:05.109Z,-1.30
2022-12-11T01:04:31.706Z,-1.40
2022-12-11T01:06:58.316Z,-1.40
2022-12-11T01:09:43.502Z,-1.40
2022-12-11T01:12:10.020Z,-1.40
2022-12-11T01:14:36.633Z,-1.50
2022-12-11T01:17:03.534Z,-1.50
2022-12-11T01:19:30.558Z,-1.50
2022-12-11T01:21:57.184Z,-1.40
2022-12-11T01:24:23.894Z,-1.40
2022-12-11T01:26:50.506Z,-1.40
2022-12-11T01:29:17.604Z,-1.50
2022-12-11T01:31:44.229Z,-1.50
2022-12-11T01:34:10.861Z,-1.40
2022-12-11T01:36:37.510Z,-1.40
2022-12-11T01:39:04.313Z,-1.40
2022-12-11T01:41:31.058Z,-1.40
2022-12-11T01:44:03.431Z,-1.40
2022-12-11T01:46:32.486Z,-1.40
2022-12-11T01:49:00.880Z,-1.40
2022-12-11T01:51:33.785Z,-1.40
2022-12-11T01:54:10.210Z,-1.40
2022-12-11T01:57:37.088Z,-1.30
2022-12-11T02:00:05.299Z,-1.30
2022-12-11T02:02:39.961Z,-1.30
2022-12-11T02:05:08.550Z,-1.20
2022-12-11T02:07:48.177Z,-1.20
2022-12-11T02:10:15.304Z,-1.30
2022-12-11T02:12:49.540Z,-1.20
2022-12-11T02:15:31.151Z,-1.30
2022-12-11T02:18:18.959Z,-1.30
2022-12-11T02:20:54.084Z,-1.30
2022-12-11T02:23:33.113Z,-1.20
2022-12-11T02:26:12.185Z,-1.20
2022-12-11T02:28:44.290Z,-1.20
2022-12-11T02:31:17.733Z,-1.10
2022-12-11T02:34:07.399Z,-1.10
2022-12-11T02:36:40.026Z,-1.10
2022-12-11T02:39:33.463Z,-1.10
2022-12-11T02:42:01.122Z,-1.10
2022-12-11T02:44:30.738Z,-1.10
2022-12-11T02:46:58.516Z,-1.00
2022-12-11T02:49:27.689Z,-1.00
2022-12-11T02:51:55.896Z,-1.00
2022-12-11T02:54:29.026Z,-1.10
2022-12-11T02:57:11.688Z,-1.10
2022-12-11T02:59:47.213Z,-1.20
2022-12-11T03:02:16.780Z,-1.30
2022-12-11T03:04:44.482Z,-1.30
2022-12-11T03:07:19.201Z,-1.30
2022-12-11T03:09:47.542Z,-1.30
2022-12-11T03:12:19.067Z,-1.30
2022-12-11T03:14:46.496Z,-1.30
2022-12-11T03:17:41.910Z,-1.30
2022-12-11T03:20:17.449Z,-1.30
2022-12-11T03:22:51.154Z,-1.30
2022-12-11T03:25:23.101Z,-1.30
2022-12-11T03:27:56.358Z,-1.30
2022-12-11T03:30:25.456Z,-1.40
2022-12-11T03:33:01.026Z,-1.40
2022-12-11T03:35:38.672Z,-1.40
2022-12-11T03:38:31.786Z,-1.40
2022-12-11T03:41:02.128Z,-1.40
2022-12-11T03:43:31.947Z,-1.40
2022-12-11T03:46:00.636Z,-1.40
2022-12-11T03:48:31.660Z,-1.50
2022-12-11T03:51:00.445Z,-1.50
2022-12-11T03:53:27.813Z,-1.40
2022-12-11T03:55:58.142Z,-1.40
2022-12-11T03:58:24.835Z,-1.40
2022-12-11T04:00:51.449Z,-1.40
2022-12-11T04:03:18.067Z,-1.40
2022-12-11T04:05:50.546Z,-1.40
2022-12-11T04:08:20.627Z,-1.40
2022-12-11T04:10:48.303Z,-1.40
2022-12-11T04:13:15.212Z,-1.40
2022-12-11T04:15:41.942Z,-1.40
2022-12-11T04:18:28.665Z,-1.40
2022-12-11T04:21:14.988Z,-1.40
2022-12-11T04:24:00.332Z,-1.40
2022-12-11T04:26:27.528Z,-1.40
2022-12-11T04:28:54.264Z,-1.40
2022-12-11T04:31:22.204Z,-1.40
2022-12-11T04:33:49.375Z,-1.40
2022-12-11T04:36:16.054Z,-1.30
2022-12-11T04:38:42.693Z,-1.40
2022-12-11T04:41:11.983Z,-1.40
2022-12-11T04:43:38.853Z,-1.30
2022-12-11T04:46:14.432Z,-1.30
2022-12-11T04:48:41.888Z,-1.30
2022-12-11T04:51:09.525Z,-1.30
2022-12-11T04:53:37.084Z,-1.30
2022-12-11T04:56:08.961Z,-1.40
2022-12-11T04:58:36.460Z,-1.30
2022-12-11T05:01:17.499Z,-1.30
2022-12-11T05:03:44.375Z,-1.30
2022-12-11T05:06:11.375Z,-1.30
2022-12-11T05:08:40.077Z,-1.30
2022-12-11T05:11:10.403Z,-1.20
2022-12-11T05:13:37.676Z,-1.30
2022-12-11T05:16:05.993Z,-1.20
2022-12-11T05:18:32.788Z,-1.20
2022-12-11T05:21:02.040Z,-1.10
2022-12-11T05:23:29.386Z,-1.10
2022-12-11T05:25:59.102Z,-1.10
2022-12-11T05:28:28.197Z,-1.00
2022-12-11T05:30:56.645Z,-1.00
2022-12-11T05:33:23.611Z,-1.10
2022-12-11T05:35:50.363Z,-1.20
2022-12-11T05:38:17.299Z,-1.00
2022-12-11T05:40:43.931Z,-1.10
2022-12-11T05:43:10.547Z,-1.10
2022-12-11T05:45:37.568Z,-1.10
2022-12-11T05:48:04.315Z,-1.10
2022-12-11T05:50:30.973Z,-1.10
2022-12-11T05:52:57.747Z,-1.10
2022-12-11T05:55:24.334Z,-1.20
2022-12-11T05:57:50.909Z,-1.10
2022-12-11T06:00:17.511Z,-1.10
2022-12-11T06:02:44.181Z,-1.10
2022-12-11T06:05:11.226Z,-1.00
2022-12-11T06:07:37.936Z,-1.00
2022-12-11T06:10:04.927Z,-1.00
2022-12-11T06:12:32.045Z,-1.00
2022-12-11T06:14:58.644Z,-1.00
2022-12-11T06:17:25.240Z,-1.00
2022-12-11T06:19:51.825Z,-0.90
2022-12-11T06:22:18.400Z,-0.90
2022-12-11T06:24:45.004Z,-0.90
2022-12-11T06:27:11.595Z,-1.00
2022-12-11T06:29:38.184Z,-0.90
2022-12-11T06:32:05.060Z,-0.90
2022-12-11T06:34:31.869Z,-0.90
2022-12-11T06:36:58.663Z,-0.90
2022-12-11T06:39:25.254Z,-0.80
2022-12-11T06:41:51.854Z,-0.90
2022-12-11T06:44:18.431Z,-0.90
2022-12-11T06:46:45.037Z,-0.90
2022-12-11T06:49:11.599Z,-0.90
2022-12-11T06:51:38.244Z,-0.90
2022-12-11T06:54:04.907Z,-0.90
2022-12-11T06:56:34.212Z,-0.90
2022-12-11T06:59:06.969Z,-0.90
2022-12-11T07:01:34.045Z,-0.90
2022-12-11T07:04:00.711Z,-0.90
2022-12-11T07:06:29.789Z,-0.90
2022-12-11T07:08:56.564Z,-0.90
2022-12-11T07:11:23.473Z,-0.90
2022-12-11T07:13:50.915Z,-0.80
2022-12-11T07:16:18.081Z,-0.70
2022-12-11T07:18:48.532Z,-0.70
2022-12-11T07:21:15.455Z,-0.70
2022-12-11T07:23:42.615Z,-0.70
2022-12-11T07:26:16.485Z,-0.90
2022-12-11T07:28:43.789Z,-0.90
2022-12-11T07:31:13.551Z,-0.80
2022-12-11T07:33:40.420Z,-0.70
2022-12-11T07:36:09.226Z,-0.60
2022-12-11T07:38:36.541Z,-0.60
2022-12-11T07:41:10.337Z,-0.50
2022-12-11T07:43:37.136Z,-0.50
2022-12-11T07:46:06.139Z,-0.60
2022-12-11T07:48:35.556Z,-0.50
2022-12-11T07:51:17.120Z,-0.50
2022-12-11T07:53:49.878Z,-0.50
2022-12-11T07:56:17.870Z,-0.50
2022-12-11T07:58:45.120Z,-0.50
2022-12-11T08:01:20.506Z,-0.50
2022-12-11T08:03:47.723Z,-0.50
2022-12-11T08:06:14.537Z,-0.50
2022-12-11T08:08:41.932Z,-0.40
2022-12-11T08:11:12.122Z,-0.40
2022-12-11T08:13:39.441Z,-0.40
2022-12-11T08:16:08.982Z,-0.40
2022-12-11T08:18:36.713Z,-0.50
2022-12-11T08:21:12.091Z,-0.60
2022-12-11T08:23:38.899Z,-0.60
2022-12-11T08:26:07.785Z,-0.60
2022-12-11T08:28:34.905Z,-0.60
2022-12-11T08:31:08.270Z,-0.60
2022-12-11T08:33:36.329Z,-0.60
2022-12-11T08:36:08.272Z,-0.60
2022-12-11T08:38:35.837Z,-0.50
2022-12-11T08:41:13.637Z,-0.50
2022-12-11T08:43:41.002Z,-0.60
2022-12-11T08:46:08.597Z,-0.60
2022-12-11T08:48:36.597Z,-0.70
2022-12-11T08:51:07.868Z,-0.70
2022-12-11T08:53:34.714Z,-0.80
2022-12-11T08:56:07.479Z,-0.80
2022-12-11T08:58:34.471Z,-0.70
2022-12-11T09:01:09.921Z,-0.70
2022-12-11T09:03:37.785Z,-0.70
2022-12-11T09:06:09.587Z,-0.70
2022-12-11T09:08:36.824Z,-0.60
2022-12-11T09:11:12.255Z,-0.50
2022-12-11T09:13:39.756Z,-0.60
2022-12-11T09:16:13.039Z,-0.60
2022-12-11T09:18:40.063Z,-0.50
2022-12-11T09:21:09.337Z,-0.50
2022-12-11T09:23:36.437Z,-0.60
2022-12-11T09:26:07.716Z,-0.60
2022-12-11T09:28:34.733Z,-0.60
2022-12-11T09:31:01.513Z,-0.60
2022-12-11T09:33:28.146Z,-0.60
2022-12-11T09:36:02.608Z,-0.60
2022-12-11T09:38:30.090Z,-0.60
2022-12-11T09:40:56.850Z,-0.60
2022-12-11T09:43:39.516Z,-0.70
2022-12-11T09:46:11.784Z,-0.60
2022-12-11T09:48:39.798Z,-0.60
2022-12-11T09:51:33.684Z,-0.70
2022-12-11T09:54:03.477Z,-0.70
2022-12-11T09:56:41.862Z,-0.60
2022-12-11T09:59:22.816Z,-0.60
2022-12-11T10:02:03.201Z,-0.50
2022-12-11T10:04:35.808Z,-0.50
2022-12-11T10:07:13.278Z,-0.40
2022-12-11T10:09:48.646Z,-0.30
2022-12-11T10:12:26.968Z,-0.30
2022-12-11T10:14:59.312Z,-0.20
2022-12-11T10:17:30.713Z,-0.20
2022-12-11T10:20:06.989Z,-0.30
2022-12-11T10:22:34.719Z,-0.40
2022-12-11T10:25:13.840Z,-0.50
2022-12-11T10:27:41.588Z,-0.50
2022-12-11T10:30:19.731Z,-0.50
2022-12-11T10:32:54.278Z,-0.70
2022-12-11T10:35:33.316Z,-0.60
2022-12-11T10:38:32.406Z,-0.60
2022-12-11T10:41:02.442Z,-0.60
2022-12-11T10:43:33.354Z,-0.60
2022-12-11T10:46:00.569Z,-0.40
2022-12-11T10:48:27.381Z,-0.40
2022-12-11T10:50:58.904Z,-0.40
2022-12-11T10:53:26.638Z,-0.30
2022-12-11T10:55:54.009Z,-0.30
2022-12-11T10:58:23.997Z,-0.30
2022-12-11T11:01:16.090Z,-0.30
2022-12-11T11:04:04.692Z,-0.30
2022-12-11T11:06:31.366Z,-0.30
2022-12-11T11:09:00.559Z,-0.20
2022-12-11T11:11:39.463Z,-0.10
2022-12-11T11:14:13.658Z,-0.10
2022-12-11T11:16:42.495Z,-0.10
2022-12-11T11:19:26.341Z,-0.10
2022-12-11T11:22:00.474Z,-0.10
2022-12-11T11:24:34.685Z,-0.10
2022-12-11T11:27:13.329Z,0.00
2022-12-11T11:29:41.349Z,0.00
2022-12-11T11:32:19.885Z,0.00
2022-12-11T11:34:46.544Z,0.10
2022-12-11T11:37:25.107Z,0.00
2022-12-11T11:39:57.979Z,0.00
2022-12-11T11:42:37.779Z,-0.10
2022-12-11T11:45:16.677Z,0.10
2022-12-11T11:48:09.435Z,0.20
2022-12-11T11:50:44.668Z,0.10
2022-12-11T11:53:31.050Z,0.00
2022-12-11T11:56:16.579Z,0.00
2022-12-11T11:59:13.927Z,0.10
2022-12-11T12:01:43.783Z,0.20
2022-12-11T12:04:11.926Z,0.10
2022-12-11T12:07:04.845Z,0.00
2022-12-11T12:09:53.407Z,-0.10
2022-12-11T12:12:38.726Z,-0.20
2022-12-11T12:15:20.589Z,-0.30
2022-12-11T12:17:56.380Z,-0.30
2022-12-11T12:20:32.096Z,-0.30
2022-12-11T12:23:25.766Z,-0.30
2022-12-11T12:26:11.323Z,-0.30
2022-12-11T12:28:57.213Z,-0.30
2022-12-11T12:31:23.990Z,-0.20
2022-12-11T12:34:16.325Z,-0.20
2022-12-11T12:37:11.206Z,-0.20
2022-12-11T12:40:17.165Z,-0.30
2022-12-11T12:42:53.118Z,-0.30
2022-12-11T12:45:53.812Z,-0.20
2022-12-11T12:48:22.533Z,-0.20
2022-12-11T12:50:50.981Z,-0.20
2022-12-11T12:53:24.679Z,-0.20
2022-12-11T12:55:52.892Z,-0.30
2022-12-11T12:58:24.877Z,-0.30
2022-12-11T13:00:52.015Z,-0.40
2022-12-11T13:03:22.020Z,-0.40
2022-12-11T13:06:10.188Z,-0.30
2022-12-11T13:08:47.308Z,-0.30
2022-12-11T13:11:17.290Z,-0.50
2022-12-11T13:14:00.785Z,-0.60
2022-12-11T13:16:41.144Z,-0.60
2022-12-11T13:19:23.292Z,-0.70
2022-12-11T13:22:03.891Z,-0.80
2022-12-11T13:24:33.232Z,-0.80
2022-12-11T13:27:25.442Z,-0.70
2022-12-11T13:29:52.643Z,-0.70
2022-12-11T13:32:23.657Z,-0.60
2022-12-11T13:34:57.195Z,-0.50
2022-12-11T13:37:34.796Z,-0.50
2022-12-11T13:40:06.430Z,-0.40
2022-12-11T13:42:51.972Z,-0.40
2022-12-11T13:45:44.488Z,-0.50
2022-12-11T13:48:34.334Z,-0.50
2022-12-11T13:51:02.645Z,-0.60
2022-12-11T13:53:29.403Z,-0.60
2022-12-11T13:56:00.334Z,-0.50
2022-12-11T13:58:28.154Z,-0.50
2022-12-11T14:01:10.773Z,-0.50
2022-12-11T14:03:46.741Z,-0.70
2022-12-11T14:06:18.540Z,-0.70
2022-12-11T14:08:50.156Z,-0.70
2022-12-11T14:11:23.650Z,-0.70
2022-12-11T14:13:50.750Z,-0.70
2022-12-11T14:16:26.325Z,-0.80
2022-12-11T14:18:55.560Z,-0.60
2022-12-11T14:21:25.314Z,-0.60
2022-12-11T14:23:54.806Z,-0.60
2022-12-11T14:26:24.517Z,-0.50
2022-12-11T14:28:51.754Z,-0.60
2022-12-11T14:31:37.428Z,-0.70
2022-12-11T14:34:24.507Z,-0.80
2022-12-11T14:36:51.483Z,-0.70
2022-12-11T14:39:30.264Z,-0.70
2022-12-11T14:42:19.552Z,-0.60
2022-12-11T14:45:00.183Z,-0.40
2022-12-11T14:47:37.462Z,-0.50
2022-12-11T14:50:06.405Z,-0.50
2022-12-11T14:52:44.467Z,-0.50
2022-12-11T14:55:32.570Z,-0.30
2022-12-11T14:58:22.271Z,-0.40
2022-12-11T15:01:00.313Z,-0.30
2022-12-11T15:03:35.660Z,-0.20
2022-12-11T15:06:20.776Z,-0.30
2022-12-11T15:08:47.454Z,-0.30
2022-12-11T15:11:16.467Z,-0.40
2022-12-11T15:13:55.439Z,-0.40
2022-12-11T15:16:24.375Z,-0.20
2022-12-11T15:18:54.131Z,-0.20
2022-12-11T15:21:32.513Z,-0.20
2022-12-11T15:24:01.401Z,-0.10
2022-12-11T15:26:39.672Z,-0.10
2022-12-11T15:29:26.777Z,-0.10
2022-12-11T15:32:18.397Z,-0.20
2022-12-11T15:34:48.030Z,-0.30
2022-12-11T15:37:22.672Z,-0.30
2022-12-11T15:39:50.034Z,-0.30
2022-12-11T15:42:28.762Z,-0.30
2022-12-11T15:44:56.125Z,-0.40
2022-12-11T15:47:28.883Z,-0.30
2022-12-11T15:50:17.606Z,-0.40
2022-12-11T15:52:45.015Z,-0.40
2022-12-11T15:55:12.223Z,-0.40
2022-12-11T15:57:42.982Z,-0.30
2022-12-11T16:00:14.320Z,-0.30
2022-12-11T16:02:40.979Z,-0.30
2022-12-11T16:05:08.545Z,-0.40
2022-12-11T16:07:35.631Z,-0.40
2022-12-11T16:10:02.508Z,-0.40
2022-12-11T16:12:29.345Z,-0.30
2022-12-11T16:14:56.075Z,-0.30
2022-12-11T16:17:22.699Z,-0.30
2022-12-11T16:19:49.370Z,-0.40
2022-12-11T16:22:16.147Z,-0.50
2022-12-11T16:24:42.895Z,-0.50
2022-12-11T16:27:09.761Z,-0.60
2022-12-11T16:29:37.617Z,-0.60
2022-12-11T16:32:06.910Z,-0.60
2022-12-11T16:34:34.087Z,-0.50
2022-12-11T16:37:01.268Z,-0.50
2022-12-11T16:39:28.035Z,-0.50
2022-12-11T16:41:55.066Z,-0.40
2022-12-11T16:44:24.266Z,-0.40
2022-12-11T16:46:51.961Z,-0.30
2022-12-11T16:49:19.125Z,-0.30
2022-12-11T16:51:45.928Z,-0.30
2022-12-11T16:54:12.783Z,-0.30
2022-12-11T16:56:39.432Z,-0.20
2022-12-11T16:59:06.636Z,-0.30
2022-12-11T17:01:34.347Z,-0.30
2022-12-11T17:04:01.287Z,-0.40
2022-12-11T17:06:28.367Z,-0.40
2022-12-11T17:08:55.245Z,-0.30
2022-12-11T17:11:24.802Z,-0.40
2022-12-11T17:13:56.398Z,-0.30
2022-12-11T17:16:25.953Z,-0.40
2022-12-11T17:18:53.504Z,-0.40
2022-12-11T17:21:22.063Z,-0.40
2022-12-11T17:23:50.379Z,-0.40
2022-12-11T17:26:18.289Z,-0.30
2022-12-11T17:28:45.643Z,-0.30
2022-12-11T17:31:17.908Z,-0.40
2022-12-11T17:33:45.905Z,-0.50
2022-12-11T17:36:15.039Z,-0.50
2022-12-11T17:38:41.961Z,-0.50
2022-12-11T17:41:13.134Z,-0.50
2022-12-11T17:43:43.579Z,-0.40
2022-12-11T17:46:13.527Z,-0.40
2022-12-11T17:48:40.578Z,-0.50
2022-12-11T17:51:09.423Z,-0.40
2022-12-11T17:53:36.779Z,-0.40
2022-12-11T17:56:05.932Z,-0.40
2022-12-11T17:58:32.907Z,-0.40
2022-12-11T18:01:00.085Z,-0.50
2022-12-11T18:03:28.120Z,-0.50
2022-12-11T18:05:56.538Z,-0.40
2022-12-11T18:08:26.351Z,-0.40
2022-12-11T18:10:53.963Z,-0.30
2022-12-11T18:13:21.851Z,-0.30
2022-12-11T18:15:59.845Z,-0.30
2022-12-11T18:18:26.702Z,-0.30
2022-12-11T18:20:53.611Z,-0.20
2022-12-11T18:23:20.344Z,-0.30
2022-12-11T18:25:47.021Z,-0.30
2022-12-11T18:28:13.722Z,-0.30
2022-12-11T18:30:40.437Z,-0.30
2022-12-11T18:33:07.144Z,-0.30
2022-12-11T18:35:33.954Z,-0.30
2022-12-11T18:38:00.658Z,-0.40
2022-12-11T18:40:28.644Z,-0.40
2022-12-11T18:42:55.486Z,-0.30
2022-12-11T18:45:22.209Z,-0.50
2022-12-11T18:47:51.617Z,-0.50
2022-12-11T18:50:18.791Z,-0.50
2022-12-11T18:52:45.505Z,-0.50
2022-12-11T18:55:12.488Z,-0.60
2022-12-11T18:57:39.569Z,-0.60
2022-12-11T19:00:07.603Z,-0.50
2022-12-11T19:02:35.364Z,-0.30
2022-12-11T19:05:02.811Z,-0.40
2022-12-11T19:07:29.690Z,-0.30
2022-12-11T19:09:56.424Z,-0.40
2022-12-11T19:12:23.143Z,-0.50
2022-12-11T19:14:49.833Z,-0.50
2022-12-11T19:17:16.538Z,-0.50
2022-12-11T19:19:45.993Z,-0.60
2022-12-11T19:22:13.118Z,-0.60
2022-12-11T19:24:40.547Z,-0.60
2022-12-11T19:27:13.227Z,-0.50
2022-12-11T19:29:40.495Z,-0.50
2022-12-11T19:32:07.383Z,-0.50
2022-12-11T19:34:34.018Z,-0.60
2022-12-11T19:37:00.654Z,-0.60
2022-12-11T19:39:28.128Z,-0.50
2022-12-11T19:41:54.927Z,-0.70
2022-12-11T19:44:21.642Z,-0.80
2022-12-11T19:46:48.485Z,-0.70
2022-12-11T19:49:15.315Z,-0.60
2022-12-11T19:51:43.186Z,-0.70
2022-12-11T19:54:13.477Z,-0.80
2022-12-11T19:56:41.056Z,-0.80
2022-12-11T19:59:11.498Z,-0.80
2022-12-11T20:01:38.571Z,-0.70
2022-12-11T20:04:08.067Z,-0.60
2022-12-11T20:06:36.750Z,-0.60
2022-12-11T20:09:05.086Z,-0.80
2022-12-11T20:11:32.956Z,-0.80
2022-12-11T20:13:59.933Z,-0.90
2022-12-11T20:16:46.309Z,-0.90
2022-12-11T20:19:13.942Z,-0.80
2022-12-11T20:21:41.087Z,-0.80
2022-12-11T20:24:08.830Z,-0.80
2022-12-11T20:26:38.034Z,-0.90
2022-12-11T20:29:07.716Z,-0.90
2022-12-11T20:31:36.460Z,-0.80
2022-12-11T20:34:04.471Z,-0.70
2022-12-11T20:36:31.288Z,-0.70
2022-12-11T20:38:58.023Z,-0.70
2022-12-11T20:41:25.567Z,-0.70
2022-12-11T20:43:54.010Z,-0.70
2022-12-11T20:46:22.793Z,-0.80
2022-12-11T20:48:50.608Z,-0.80
2022-12-11T20:51:25.273Z,-0.70
2022-12-11T20:53:58.252Z,-0.70
2022-12-11T20:56:28.037Z,-0.60
2022-12-11T20:58:55.962Z,-0.70
2022-12-11T21:01:24.707Z,-0.90
2022-12-11T21:03:52.894Z,-0.90
2022-12-11T21:06:32.230Z,-1.00
2022-12-11T21:09:04.818Z,-1.00
2022-12-11T21:11:31.563Z,-0.90
2022-12-11T21:13:59.026Z,-0.90
2022-12-11T21:16:26.148Z,-0.90
2022-12-11T21:18:54.366Z,-1.00
2022-12-11T21:21:21.322Z,-1.00
2022-12-11T21:23:47.989Z,-1.00
2022-12-11T21:26:15.301Z,-0.90
2022-12-11T21:28:42.256Z,-0.80
2022-12-11T21:31:11.789Z,-0.90
2022-12-11T21:33:38.883Z,-0.80
2022-12-11T21:36:07.031Z,-0.90
2022-12-11T21:38:33.757Z,-0.90
2022-12-11T21:41:13.526Z,-1.00
2022-12-11T21:44:14.265Z,-1.00
2022-12-11T21:46:28.729Z,-1.00
2022-12-11T21:48:55.928Z,-1.10
2022-12-11T21:51:34.296Z,-1.00
2022-12-11T21:54:05.858Z,-1.10
2022-12-11T21:56:32.674Z,-1.00
2022-12-11T21:59:01.195Z,-1.00
2022-12-11T22:01:31.285Z,-1.10
2022-12-11T22:03:59.606Z,-1.00
2022-12-11T22:06:26.834Z,-1.00
2022-12-11T22:08:53.693Z,-1.00
2022-12-11T22:11:23.648Z,-1.00
2022-12-11T22:13:50.767Z,-0.90
2022-12-11T22:16:18.310Z,-0.90
2022-12-11T22:18:45.780Z,-0.90
2022-12-11T22:21:12.484Z,-0.90
2022-12-11T22:23:39.928Z,-1.00
2022-12-11T22:26:07.924Z,-1.00
2022-12-11T22:28:35.050Z,-0.90
2022-12-11T22:31:01.728Z,-1.00
2022-12-11T22:33:28.493Z,-1.00
2022-12-11T22:35:59.639Z,-1.10
2022-12-11T22:38:26.672Z,-1.10
2022-12-11T22:40:54.957Z,-1.20
2022-12-11T22:43:22.010Z,-1.10
2022-12-11T22:45:49.131Z,-1.10
2022-12-11T22:48:15.818Z,-1.10
2022-12-11T22:50:43.319Z,-1.10
2022-12-11T22:53:10.440Z,-1.10
2022-12-11T22:55:40.409Z,-1.10
2022-12-11T22:58:07.236Z,-1.10
2022-12-11T23:00:33.907Z,-1.20
2022-12-11T23:03:01.764Z,-1.30
2022-12-11T23:05:29.147Z,-1.30
2022-12-11T23:07:56.101Z,-1.30
2022-12-11T23:10:22.867Z,-1.30
2022-12-11T23:12:49.704Z,-1.30
2022-12-11T23:15:16.942Z,-1.40
2022-12-11T23:17:43.693Z,-1.40
2022-12-11T23:20:10.855Z,-1.40
2022-12-11T23:22:37.544Z,-1.40
2022-12-11T23:25:04.580Z,-1.30
2022-12-11T23:27:31.327Z,-1.30
2022-12-11T23:29:58.132Z,-1.30
2022-12-11T23:32:24.848Z,-1.40
2022-12-11T23:34:51.678Z,-1.40
2022-12-11T23:37:18.367Z,-1.40
2022-12-11T23:39:45.059Z,-1.40
2022-12-11T23:42:11.810Z,-1.40
2022-12-11T23:44:38.483Z,-1.40
2022-12-11T23:47:05.243Z,-1.30
2022-12-11T23:49:31.990Z,-1.20
2022-12-11T23:51:58.635Z,-1.20
2022-12-11T23:54:25.304Z,-1.20
2022-12-11T23:56:51.986Z,-1.20
2022-12-11T23:59:18.606Z,-1.20
